»·PEaware :: N734TD KJFK-KEWR

N734TD :: KJFK-KEWR

FLIGHT INFORMATION

Flight Status: Arrived
Operator: Privately registered:
United States
More flights under this callsign
Pilot: Chris S. (2433)
Aircraft: CANADAIR CL-600 CHALLENGER
(CL60)
More flights by this aircraft type
Origin: KJFK Kennedy Intl
United States
Destination: KEWR Newark Intl
United States
More flights between these airports :: More routes between these airports
Route: JFK5 V16 DIXIE V276 RBV V249 SBJ
File this flight plan on PilotEdge
Remarks:
Altitude:
(Current/Filed)
6,000ft
Speed:
(Current/Filed)
465kts
Departed: 03-Dec-22 06:41 AM
Arrived: 03-Dec-22 07:20 AM
Distance/Time
Traveled:
18nm/0:39
Distance/Time
To Go:
Arrived

Flight Plot

Page will automatically refresh every two minutes.

Flight plan parsing failed; only flown route is shown


Map Options




Map Legend


Flown Route
Filed Route
Departure Airport
Arrival Airport
Navaid (VOR, NDB)
Fix

Horizontal Profiles

Position Reports

Time Latitude Longitude Heading Altitude Ground
Speed
03-Dec-22 06:24 40.656145 -73.779241 226 14ft 0kts
03-Dec-22 06:25 40.656142 -73.779244 226 14ft 0kts
03-Dec-22 06:26 40.655946 -73.778993 117 14ft 8kts
03-Dec-22 06:27 40.655708 -73.778449 120 14ft 0kts
03-Dec-22 06:28 40.655708 -73.778449 120 14ft 0kts
03-Dec-22 06:29 40.655708 -73.778449 120 14ft 0kts
03-Dec-22 06:30 40.655708 -73.778449 120 14ft 0kts
03-Dec-22 06:31 40.655708 -73.778449 120 14ft 0kts
03-Dec-22 06:32 40.655708 -73.778449 120 14ft 0kts
03-Dec-22 06:33 40.655708 -73.778449 120 14ft 0kts
03-Dec-22 06:34 40.654990 -73.778262 211 14ft 10kts
03-Dec-22 06:35 40.655253 -73.781880 300 14ft 18kts
03-Dec-22 06:36 40.658278 -73.788553 300 14ft 24kts
03-Dec-22 06:37 40.658458 -73.789208 264 14ft 0kts
03-Dec-22 06:38 40.658057 -73.789867 211 14ft 9kts
03-Dec-22 06:39 40.657556 -73.789777 118 14ft 0kts
03-Dec-22 06:40 40.653690 -73.781142 120 25ft 150kts
03-Dec-22 06:41 40.627000 -73.713605 120 1935ft 229kts
03-Dec-22 06:42 40.595513 -73.638981 146 3681ft 232kts
03-Dec-22 06:43 40.542190 -73.665588 220 4942ft 225kts
03-Dec-22 06:44 40.493142 -73.723469 220 4939ft 244kts
03-Dec-22 06:45 40.441233 -73.781308 219 4949ft 245kts
03-Dec-22 06:46 40.389417 -73.839454 220 5484ft 246kts
03-Dec-22 06:47 40.336956 -73.898198 220 5927ft 248kts
03-Dec-22 06:48 40.299390 -73.970453 256 5936ft 252kts
03-Dec-22 06:49 40.286556 -74.056494 256 5947ft 220kts
03-Dec-22 06:50 40.274691 -74.135918 253 4809ft 225kts
03-Dec-22 06:51 40.263751 -74.215741 256 3950ft 219kts
03-Dec-22 06:52 40.269389 -74.291574 321 3531ft 241kts
03-Dec-22 06:53 40.333219 -74.312123 345 2966ft 229kts
03-Dec-22 06:54 40.395839 -74.328431 345 2949ft 230kts
03-Dec-22 06:55 40.457789 -74.325777 36 2546ft 235kts
03-Dec-22 06:56 40.511875 -74.280834 27 1965ft 228kts
03-Dec-22 06:57 40.565018 -74.245783 25 1969ft 209kts
03-Dec-22 06:58 40.616220 -74.213446 26 1513ft 180kts
03-Dec-22 06:59 40.652801 -74.190077 26 727ft 146kts
03-Dec-22 07:00 40.696347 -74.162118 29 1850ft 239kts
03-Dec-22 07:01 40.744242 -74.100797 45 2937ft 244kts
03-Dec-22 07:02 40.794136 -74.042848 4 2932ft 241kts
03-Dec-22 07:03 40.832247 -74.100485 266 3311ft 216kts
03-Dec-22 07:04 40.820811 -74.176496 244 3951ft 212kts
03-Dec-22 07:05 40.788635 -74.240249 215 3940ft 206kts
03-Dec-22 07:06 40.741718 -74.284490 208 3974ft 207kts
03-Dec-22 07:07 40.688903 -74.315078 204 3905ft 207kts
03-Dec-22 07:08 40.636017 -74.346108 204 3929ft 208kts
03-Dec-22 07:09 40.583042 -74.378021 203 3939ft 209kts
03-Dec-22 07:10 40.530159 -74.409830 205 3764ft 210kts
03-Dec-22 07:11 40.477663 -74.427834 141 2977ft 217kts
03-Dec-22 07:12 40.460869 -74.353840 107 2971ft 183kts
03-Dec-22 07:13 40.490865 -74.303989 40 2967ft 172kts
03-Dec-22 07:14 40.518045 -74.256641 86 2983ft 167kts
03-Dec-22 07:15 40.557808 -74.237822 358 1985ft 166kts
03-Dec-22 07:16 40.601753 -74.222323 27 1750ft 168kts
03-Dec-22 07:17 40.641151 -74.197427 26 895ft 137kts
03-Dec-22 07:18 40.674554 -74.176201 25 165ft 134kts
03-Dec-22 07:19 40.695116 -74.162813 85 14ft 13kts
03-Dec-22 07:20 40.696426 -74.159463 82 14ft 0kts
03-Dec-22 07:21 40.696426 -74.159463 82 14ft 0kts

Navigation Log

Ident Type
Flight plan parsing failed, navigation log unavailable